sensor_id;sensor_type;location;lat;lon;timestamp;P1;durP1;ratioP1;P2;durP2;ratioP2
5171;SDS011;2605;49.770;9.868;2022-11-20T00:00:28;37.23;;;23.97;;
5171;SDS011;2605;49.770;9.868;2022-11-20T00:02:53;40.23;;;24.13;;
5171;SDS011;2605;49.770;9.868;2022-11-20T00:05:19;34.57;;;22.00;;
5171;SDS011;2605;49.770;9.868;2022-11-20T00:07:45;36.43;;;23.63;;
5171;SDS011;2605;49.770;9.868;2022-11-20T00:10:11;37.40;;;24.43;;
5171;SDS011;2605;49.770;9.868;2022-11-20T00:12:36;42.43;;;24.30;;
5171;SDS011;2605;49.770;9.868;2022-11-20T00:15:02;38.00;;;24.27;;
5171;SDS011;2605;49.770;9.868;2022-11-20T00:17:28;41.47;;;24.47;;
5171;SDS011;2605;49.770;9.868;2022-11-20T00:19:54;38.03;;;23.50;;
5171;SDS011;2605;49.770;9.868;2022-11-20T00:22:19;35.67;;;23.33;;
5171;SDS011;2605;49.770;9.868;2022-11-20T00:24:45;36.33;;;23.90;;
5171;SDS011;2605;49.770;9.868;2022-11-20T00:27:10;43.83;;;25.57;;
5171;SDS011;2605;49.770;9.868;2022-11-20T00:29:36;40.57;;;24.77;;
5171;SDS011;2605;49.770;9.868;2022-11-20T00:32:01;34.83;;;22.80;;
5171;SDS011;2605;49.770;9.868;2022-11-20T00:34:27;39.43;;;24.97;;
5171;SDS011;2605;49.770;9.868;2022-11-20T00:36:52;36.90;;;25.23;;
5171;SDS011;2605;49.770;9.868;2022-11-20T00:39:18;37.70;;;27.07;;
5171;SDS011;2605;49.770;9.868;2022-11-20T00:41:43;44.17;;;28.17;;
5171;SDS011;2605;49.770;9.868;2022-11-20T00:44:09;48.10;;;26.00;;
5171;SDS011;2605;49.770;9.868;2022-11-20T00:46:34;42.30;;;25.80;;
5171;SDS011;2605;49.770;9.868;2022-11-20T00:49:00;45.13;;;27.10;;
5171;SDS011;2605;49.770;9.868;2022-11-20T00:51:26;41.80;;;25.80;;
5171;SDS011;2605;49.770;9.868;2022-11-20T00:53:54;42.30;;;25.80;;
5171;SDS011;2605;49.770;9.868;2022-11-20T00:56:21;37.77;;;23.63;;
5171;SDS011;2605;49.770;9.868;2022-11-20T00:58:47;35.60;;;22.60;;
5171;SDS011;2605;49.770;9.868;2022-11-20T01:01:17;39.03;;;23.80;;
5171;SDS011;2605;49.770;9.868;2022-11-20T01:03:46;43.07;;;25.37;;
5171;SDS011;2605;49.770;9.868;2022-11-20T01:06:17;41.83;;;26.50;;
5171;SDS011;2605;49.770;9.868;2022-11-20T01:08:42;43.13;;;25.50;;
5171;SDS011;2605;49.770;9.868;2022-11-20T01:11:14;41.30;;;27.87;;
5171;SDS011;2605;49.770;9.868;2022-11-20T01:13:41;40.73;;;25.93;;
5171;SDS011;2605;49.770;9.868;2022-11-20T01:16:11;41.70;;;25.50;;
5171;SDS011;2605;49.770;9.868;2022-11-20T01:18:38;41.03;;;25.43;;
5171;SDS011;2605;49.770;9.868;2022-11-20T01:21:07;40.40;;;26.50;;
5171;SDS011;2605;49.770;9.868;2022-11-20T01:23:34;44.47;;;27.17;;
5171;SDS011;2605;49.770;9.868;2022-11-20T01:26:05;41.50;;;25.70;;
5171;SDS011;2605;49.770;9.868;2022-11-20T01:28:33;40.70;;;25.70;;
5171;SDS011;2605;49.770;9.868;2022-11-20T01:30:59;37.83;;;24.57;;
5171;SDS011;2605;49.770;9.868;2022-11-20T01:33:25;42.77;;;23.73;;
5171;SDS011;2605;49.770;9.868;2022-11-20T01:35:52;41.43;;;25.33;;
5171;SDS011;2605;49.770;9.868;2022-11-20T01:38:18;41.50;;;24.27;;
5171;SDS011;2605;49.770;9.868;2022-11-20T01:40:54;40.53;;;25.27;;
5171;SDS011;2605;49.770;9.868;2022-11-20T01:43:20;48.33;;;25.97;;
5171;SDS011;2605;49.770;9.868;2022-11-20T01:48:23;43.93;;;26.43;;
5171;SDS011;2605;49.770;9.868;2022-11-20T01:50:52;42.27;;;26.03;;
5171;SDS011;2605;49.770;9.868;2022-11-20T01:53:18;41.80;;;26.37;;
5171;SDS011;2605;49.770;9.868;2022-11-20T01:55:49;43.07;;;25.07;;
5171;SDS011;2605;49.770;9.868;2022-11-20T01:58:19;40.30;;;25.13;;
5171;SDS011;2605;49.770;9.868;2022-11-20T02:00:47;40.10;;;24.93;;
5171;SDS011;2605;49.770;9.868;2022-11-20T02:03:15;40.03;;;26.10;;
5171;SDS011;2605;49.770;9.868;2022-11-20T02:05:47;37.80;;;23.80;;
5171;SDS011;2605;49.770;9.868;2022-11-20T02:08:25;37.60;;;22.43;;
5171;SDS011;2605;49.770;9.868;2022-11-20T02:10:51;37.50;;;23.80;;
5171;SDS011;2605;49.770;9.868;2022-11-20T02:13:16;38.53;;;23.00;;
5171;SDS011;2605;49.770;9.868;2022-11-20T02:16:00;36.90;;;24.20;;
5171;SDS011;2605;49.770;9.868;2022-11-20T02:18:27;36.73;;;25.57;;
5171;SDS011;2605;49.770;9.868;2022-11-20T02:20:54;37.13;;;24.57;;
5171;SDS011;2605;49.770;9.868;2022-11-20T02:23:31;34.53;;;22.97;;
5171;SDS011;2605;49.770;9.868;2022-11-20T02:26:03;44.37;;;24.80;;
5171;SDS011;2605;49.770;9.868;2022-11-20T02:28:31;40.00;;;26.50;;
5171;SDS011;2605;49.770;9.868;2022-11-20T02:30:57;39.37;;;24.57;;
5171;SDS011;2605;49.770;9.868;2022-11-20T02:33:23;37.43;;;25.60;;
5171;SDS011;2605;49.770;9.868;2022-11-20T02:35:48;33.57;;;22.80;;
5171;SDS011;2605;49.770;9.868;2022-11-20T02:38:14;35.97;;;21.70;;
5171;SDS011;2605;49.770;9.868;2022-11-20T02:40:40;41.27;;;25.13;;
5171;SDS011;2605;49.770;9.868;2022-11-20T02:43:06;36.63;;;23.07;;
5171;SDS011;2605;49.770;9.868;2022-11-20T02:45:32;40.10;;;25.03;;
5171;SDS011;2605;49.770;9.868;2022-11-20T02:47:58;36.30;;;25.00;;
5171;SDS011;2605;49.770;9.868;2022-11-20T02:50:23;39.80;;;25.50;;
5171;SDS011;2605;49.770;9.868;2022-11-20T02:52:49;37.67;;;25.03;;
5171;SDS011;2605;49.770;9.868;2022-11-20T02:55:14;39.43;;;24.90;;
5171;SDS011;2605;49.770;9.868;2022-11-20T02:57:40;35.40;;;23.23;;
5171;SDS011;2605;49.770;9.868;2022-11-20T03:00:05;34.37;;;24.63;;
5171;SDS011;2605;49.770;9.868;2022-11-20T03:02:32;33.00;;;23.20;;
5171;SDS011;2605;49.770;9.868;2022-11-20T03:04:57;37.37;;;23.20;;
5171;SDS011;2605;49.770;9.868;2022-11-20T03:07:23;38.17;;;23.77;;
5171;SDS011;2605;49.770;9.868;2022-11-20T03:09:49;37.00;;;24.80;;
5171;SDS011;2605;49.770;9.868;2022-11-20T03:12:14;37.70;;;24.80;;
5171;SDS011;2605;49.770;9.868;2022-11-20T03:14:40;34.53;;;23.37;;
5171;SDS011;2605;49.770;9.868;2022-11-20T03:17:05;34.67;;;23.57;;
5171;SDS011;2605;49.770;9.868;2022-11-20T03:19:31;37.73;;;24.43;;
5171;SDS011;2605;49.770;9.868;2022-11-20T03:21:57;36.43;;;23.73;;
5171;SDS011;2605;49.770;9.868;2022-11-20T03:24:22;41.60;;;25.50;;
5171;SDS011;2605;49.770;9.868;2022-11-20T03:26:48;36.23;;;23.70;;
5171;SDS011;2605;49.770;9.868;2022-11-20T03:29:13;36.40;;;22.90;;
5171;SDS011;2605;49.770;9.868;2022-11-20T03:31:39;35.23;;;21.70;;
5171;SDS011;2605;49.770;9.868;2022-11-20T03:34:06;31.70;;;21.00;;
5171;SDS011;2605;49.770;9.868;2022-11-20T03:36:32;34.80;;;22.60;;
5171;SDS011;2605;49.770;9.868;2022-11-20T03:38:58;34.73;;;21.73;;
5171;SDS011;2605;49.770;9.868;2022-11-20T03:41:25;35.23;;;21.97;;
5171;SDS011;2605;49.770;9.868;2022-11-20T03:43:56;41.97;;;23.97;;
5171;SDS011;2605;49.770;9.868;2022-11-20T03:46:24;36.77;;;23.10;;
5171;SDS011;2605;49.770;9.868;2022-11-20T03:48:50;32.47;;;22.30;;
5171;SDS011;2605;49.770;9.868;2022-11-20T03:51:23;35.70;;;23.10;;
5171;SDS011;2605;49.770;9.868;2022-11-20T03:53:50;34.53;;;24.77;;
5171;SDS011;2605;49.770;9.868;2022-11-20T03:56:18;39.20;;;23.00;;
5171;SDS011;2605;49.770;9.868;2022-11-20T03:58:45;34.50;;;21.30;;
5171;SDS011;2605;49.770;9.868;2022-11-20T04:01:17;32.90;;;21.13;;
5171;SDS011;2605;49.770;9.868;2022-11-20T04:03:45;33.43;;;20.83;;
5171;SDS011;2605;49.770;9.868;2022-11-20T04:08:44;35.07;;;23.50;;
5171;SDS011;2605;49.770;9.868;2022-11-20T04:11:14;35.70;;;23.30;;
5171;SDS011;2605;49.770;9.868;2022-11-20T04:13:42;33.30;;;21.70;;
5171;SDS011;2605;49.770;9.868;2022-11-20T04:16:11;34.40;;;21.27;;
5171;SDS011;2605;49.770;9.868;2022-11-20T04:18:36;33.40;;;22.43;;
5171;SDS011;2605;49.770;9.868;2022-11-20T04:21:02;33.97;;;22.13;;
5171;SDS011;2605;49.770;9.868;2022-11-20T04:23:29;34.83;;;23.20;;
5171;SDS011;2605;49.770;9.868;2022-11-20T04:25:54;33.27;;;22.97;;
5171;SDS011;2605;49.770;9.868;2022-11-20T04:28:25;33.90;;;22.73;;
5171;SDS011;2605;49.770;9.868;2022-11-20T04:30:50;35.13;;;22.17;;
5171;SDS011;2605;49.770;9.868;2022-11-20T04:33:16;33.47;;;22.40;;
5171;SDS011;2605;49.770;9.868;2022-11-20T04:35:41;30.37;;;22.47;;
5171;SDS011;2605;49.770;9.868;2022-11-20T04:38:07;33.43;;;23.27;;
5171;SDS011;2605;49.770;9.868;2022-11-20T04:40:33;33.87;;;21.33;;
5171;SDS011;2605;49.770;9.868;2022-11-20T04:42:58;29.80;;;20.47;;
5171;SDS011;2605;49.770;9.868;2022-11-20T04:45:24;33.13;;;20.10;;
5171;SDS011;2605;49.770;9.868;2022-11-20T04:47:50;33.87;;;21.57;;
5171;SDS011;2605;49.770;9.868;2022-11-20T04:50:15;34.23;;;21.60;;
5171;SDS011;2605;49.770;9.868;2022-11-20T04:52:41;31.70;;;21.60;;
5171;SDS011;2605;49.770;9.868;2022-11-20T04:55:06;27.93;;;20.10;;
5171;SDS011;2605;49.770;9.868;2022-11-20T04:57:32;31.23;;;20.13;;
5171;SDS011;2605;49.770;9.868;2022-11-20T04:59:58;24.43;;;18.50;;
5171;SDS011;2605;49.770;9.868;2022-11-20T05:02:23;27.90;;;18.37;;
5171;SDS011;2605;49.770;9.868;2022-11-20T05:04:49;30.23;;;19.17;;
5171;SDS011;2605;49.770;9.868;2022-11-20T05:07:14;33.73;;;20.83;;
5171;SDS011;2605;49.770;9.868;2022-11-20T05:09:40;32.23;;;20.50;;
5171;SDS011;2605;49.770;9.868;2022-11-20T05:12:07;29.27;;;20.87;;
5171;SDS011;2605;49.770;9.868;2022-11-20T05:14:33;29.47;;;19.80;;
5171;SDS011;2605;49.770;9.868;2022-11-20T05:16:58;28.80;;;18.93;;
5171;SDS011;2605;49.770;9.868;2022-11-20T05:19:24;31.67;;;18.30;;
5171;SDS011;2605;49.770;9.868;2022-11-20T05:21:49;28.90;;;19.97;;
5171;SDS011;2605;49.770;9.868;2022-11-20T05:24:15;28.87;;;21.03;;
5171;SDS011;2605;49.770;9.868;2022-11-20T05:26:40;27.43;;;18.50;;
5171;SDS011;2605;49.770;9.868;2022-11-20T05:29:06;27.57;;;18.13;;
5171;SDS011;2605;49.770;9.868;2022-11-20T05:31:31;29.03;;;19.17;;
5171;SDS011;2605;49.770;9.868;2022-11-20T05:33:57;29.27;;;19.43;;
5171;SDS011;2605;49.770;9.868;2022-11-20T05:36:22;32.03;;;20.20;;
5171;SDS011;2605;49.770;9.868;2022-11-20T05:38:48;30.40;;;19.70;;
5171;SDS011;2605;49.770;9.868;2022-11-20T05:41:15;34.20;;;19.17;;
5171;SDS011;2605;49.770;9.868;2022-11-20T05:43:42;28.03;;;17.90;;
5171;SDS011;2605;49.770;9.868;2022-11-20T05:46:10;29.03;;;20.20;;
5171;SDS011;2605;49.770;9.868;2022-11-20T05:48:40;27.10;;;19.63;;
5171;SDS011;2605;49.770;9.868;2022-11-20T05:51:08;27.13;;;18.70;;
5171;SDS011;2605;49.770;9.868;2022-11-20T05:53:36;33.03;;;19.93;;
5171;SDS011;2605;49.770;9.868;2022-11-20T05:56:05;32.03;;;20.37;;
5171;SDS011;2605;49.770;9.868;2022-11-20T05:58:35;34.33;;;21.73;;
5171;SDS011;2605;49.770;9.868;2022-11-20T06:03:35;32.03;;;20.83;;
5171;SDS011;2605;49.770;9.868;2022-11-20T06:06:01;33.73;;;21.53;;
5171;SDS011;2605;49.770;9.868;2022-11-20T06:08:28;31.50;;;20.33;;
5171;SDS011;2605;49.770;9.868;2022-11-20T06:10:54;37.90;;;24.27;;
5171;SDS011;2605;49.770;9.868;2022-11-20T06:13:20;35.20;;;21.17;;
5171;SDS011;2605;49.770;9.868;2022-11-20T06:15:49;34.50;;;21.63;;
5171;SDS011;2605;49.770;9.868;2022-11-20T06:18:15;36.50;;;23.13;;
5171;SDS011;2605;49.770;9.868;2022-11-20T06:20:40;43.13;;;23.70;;
5171;SDS011;2605;49.770;9.868;2022-11-20T06:23:06;36.00;;;22.37;;
5171;SDS011;2605;49.770;9.868;2022-11-20T06:25:31;41.77;;;23.73;;
5171;SDS011;2605;49.770;9.868;2022-11-20T06:27:57;33.70;;;22.83;;
5171;SDS011;2605;49.770;9.868;2022-11-20T06:30:22;41.27;;;24.30;;
5171;SDS011;2605;49.770;9.868;2022-11-20T06:32:48;38.23;;;21.40;;
5171;SDS011;2605;49.770;9.868;2022-11-20T06:35:13;35.73;;;22.83;;
5171;SDS011;2605;49.770;9.868;2022-11-20T06:37:39;37.57;;;20.90;;
5171;SDS011;2605;49.770;9.868;2022-11-20T06:40:05;34.90;;;22.83;;
5171;SDS011;2605;49.770;9.868;2022-11-20T06:42:32;38.60;;;22.47;;
5171;SDS011;2605;49.770;9.868;2022-11-20T06:44:57;35.77;;;21.63;;
5171;SDS011;2605;49.770;9.868;2022-11-20T06:47:23;35.43;;;23.00;;
5171;SDS011;2605;49.770;9.868;2022-11-20T06:49:48;34.80;;;21.30;;
5171;SDS011;2605;49.770;9.868;2022-11-20T06:52:13;38.23;;;24.03;;
5171;SDS011;2605;49.770;9.868;2022-11-20T06:54:39;38.80;;;24.00;;
5171;SDS011;2605;49.770;9.868;2022-11-20T06:57:04;35.23;;;22.83;;
5171;SDS011;2605;49.770;9.868;2022-11-20T06:59:30;40.03;;;22.93;;
5171;SDS011;2605;49.770;9.868;2022-11-20T07:01:55;34.87;;;22.50;;
5171;SDS011;2605;49.770;9.868;2022-11-20T07:04:21;36.30;;;23.20;;
5171;SDS011;2605;49.770;9.868;2022-11-20T07:06:46;33.17;;;20.10;;
5171;SDS011;2605;49.770;9.868;2022-11-20T07:09:13;35.87;;;21.83;;
5171;SDS011;2605;49.770;9.868;2022-11-20T07:11:38;36.57;;;23.50;;
5171;SDS011;2605;49.770;9.868;2022-11-20T07:14:04;33.00;;;21.90;;
5171;SDS011;2605;49.770;9.868;2022-11-20T07:16:30;37.90;;;22.37;;
5171;SDS011;2605;49.770;9.868;2022-11-20T07:18:55;33.50;;;22.17;;
5171;SDS011;2605;49.770;9.868;2022-11-20T07:21:21;40.40;;;24.37;;
5171;SDS011;2605;49.770;9.868;2022-11-20T07:23:46;42.40;;;22.43;;
5171;SDS011;2605;49.770;9.868;2022-11-20T07:26:12;40.17;;;24.47;;
5171;SDS011;2605;49.770;9.868;2022-11-20T07:28:37;43.73;;;24.73;;
5171;SDS011;2605;49.770;9.868;2022-11-20T07:31:03;36.43;;;20.80;;
5171;SDS011;2605;49.770;9.868;2022-11-20T07:33:30;31.67;;;22.20;;
5171;SDS011;2605;49.770;9.868;2022-11-20T07:35:55;37.00;;;21.80;;
5171;SDS011;2605;49.770;9.868;2022-11-20T07:38:22;39.80;;;24.03;;
5171;SDS011;2605;49.770;9.868;2022-11-20T07:40:48;35.10;;;22.67;;
5171;SDS011;2605;49.770;9.868;2022-11-20T07:43:18;36.70;;;21.87;;
5171;SDS011;2605;49.770;9.868;2022-11-20T07:45:43;35.47;;;21.70;;
5171;SDS011;2605;49.770;9.868;2022-11-20T07:48:08;40.80;;;22.00;;
5171;SDS011;2605;49.770;9.868;2022-11-20T07:50:34;36.07;;;22.33;;
5171;SDS011;2605;49.770;9.868;2022-11-20T07:53:00;28.70;;;20.33;;
5171;SDS011;2605;49.770;9.868;2022-11-20T07:55:29;32.90;;;21.90;;
5171;SDS011;2605;49.770;9.868;2022-11-20T07:57:55;27.57;;;17.87;;
5171;SDS011;2605;49.770;9.868;2022-11-20T08:00:22;32.53;;;18.23;;
5171;SDS011;2605;49.770;9.868;2022-11-20T08:02:47;40.03;;;21.50;;
5171;SDS011;2605;49.770;9.868;2022-11-20T08:05:13;29.17;;;17.80;;
5171;SDS011;2605;49.770;9.868;2022-11-20T08:07:39;33.93;;;19.23;;
5171;SDS011;2605;49.770;9.868;2022-11-20T08:10:07;30.50;;;19.00;;
5171;SDS011;2605;49.770;9.868;2022-11-20T08:12:35;32.67;;;19.50;;
5171;SDS011;2605;49.770;9.868;2022-11-20T08:15:19;33.17;;;20.87;;
5171;SDS011;2605;49.770;9.868;2022-11-20T08:17:45;44.63;;;20.87;;
5171;SDS011;2605;49.770;9.868;2022-11-20T08:20:10;39.80;;;20.07;;
5171;SDS011;2605;49.770;9.868;2022-11-20T08:22:36;27.90;;;19.23;;
5171;SDS011;2605;49.770;9.868;2022-11-20T08:25:02;32.57;;;20.07;;
5171;SDS011;2605;49.770;9.868;2022-11-20T08:27:27;28.43;;;17.10;;
5171;SDS011;2605;49.770;9.868;2022-11-20T08:29:53;26.87;;;17.60;;
5171;SDS011;2605;49.770;9.868;2022-11-20T08:32:18;29.20;;;17.80;;
5171;SDS011;2605;49.770;9.868;2022-11-20T08:34:44;26.30;;;17.40;;
5171;SDS011;2605;49.770;9.868;2022-11-20T08:37:09;27.30;;;19.03;;
5171;SDS011;2605;49.770;9.868;2022-11-20T08:39:35;27.30;;;17.30;;
5171;SDS011;2605;49.770;9.868;2022-11-20T08:42:00;26.53;;;17.87;;
5171;SDS011;2605;49.770;9.868;2022-11-20T08:44:26;29.47;;;18.40;;
5171;SDS011;2605;49.770;9.868;2022-11-20T08:46:51;27.10;;;16.80;;
5171;SDS011;2605;49.770;9.868;2022-11-20T08:49:17;25.33;;;18.20;;
5171;SDS011;2605;49.770;9.868;2022-11-20T08:51:43;26.70;;;16.53;;
5171;SDS011;2605;49.770;9.868;2022-11-20T08:54:08;28.03;;;18.33;;
5171;SDS011;2605;49.770;9.868;2022-11-20T08:56:34;28.33;;;17.03;;
5171;SDS011;2605;49.770;9.868;2022-11-20T08:59:00;26.10;;;16.40;;
5171;SDS011;2605;49.770;9.868;2022-11-20T09:01:26;23.50;;;16.37;;
5171;SDS011;2605;49.770;9.868;2022-11-20T09:03:54;24.53;;;16.93;;
5171;SDS011;2605;49.770;9.868;2022-11-20T09:06:21;23.50;;;16.30;;
5171;SDS011;2605;49.770;9.868;2022-11-20T09:08:47;25.13;;;17.23;;
5171;SDS011;2605;49.770;9.868;2022-11-20T09:11:16;22.57;;;15.80;;
5171;SDS011;2605;49.770;9.868;2022-11-20T09:13:41;23.90;;;17.30;;
5171;SDS011;2605;49.770;9.868;2022-11-20T09:16:08;23.50;;;16.27;;
5171;SDS011;2605;49.770;9.868;2022-11-20T09:18:34;22.33;;;15.50;;
5171;SDS011;2605;49.770;9.868;2022-11-20T09:21:04;19.33;;;13.87;;
5171;SDS011;2605;49.770;9.868;2022-11-20T09:23:35;19.17;;;14.80;;
5171;SDS011;2605;49.770;9.868;2022-11-20T09:26:05;19.83;;;13.23;;
5171;SDS011;2605;49.770;9.868;2022-11-20T09:28:35;19.70;;;13.83;;
5171;SDS011;2605;49.770;9.868;2022-11-20T09:31:04;21.37;;;13.90;;
5171;SDS011;2605;49.770;9.868;2022-11-20T09:33:34;18.30;;;13.83;;
5171;SDS011;2605;49.770;9.868;2022-11-20T09:36:00;22.40;;;13.90;;
5171;SDS011;2605;49.770;9.868;2022-11-20T09:38:26;23.67;;;15.37;;
5171;SDS011;2605;49.770;9.868;2022-11-20T09:40:57;28.13;;;17.30;;
5171;SDS011;2605;49.770;9.868;2022-11-20T09:43:31;26.03;;;17.87;;
5171;SDS011;2605;49.770;9.868;2022-11-20T09:51:44;31.27;;;19.13;;
5171;SDS011;2605;49.770;9.868;2022-11-20T09:54:21;30.57;;;18.57;;
5171;SDS011;2605;49.770;9.868;2022-11-20T09:56:53;27.87;;;16.70;;
5171;SDS011;2605;49.770;9.868;2022-11-20T09:59:26;18.77;;;11.50;;
5171;SDS011;2605;49.770;9.868;2022-11-20T10:02:08;28.83;;;14.70;;
5171;SDS011;2605;49.770;9.868;2022-11-20T10:04:45;24.57;;;17.87;;
5171;SDS011;2605;49.770;9.868;2022-11-20T10:07:17;24.07;;;16.37;;
5171;SDS011;2605;49.770;9.868;2022-11-20T10:09:53;22.17;;;14.10;;
5171;SDS011;2605;49.770;9.868;2022-11-20T10:12:26;24.23;;;15.93;;
5171;SDS011;2605;49.770;9.868;2022-11-20T10:17:52;20.30;;;15.47;;
5171;SDS011;2605;49.770;9.868;2022-11-20T10:20:37;23.50;;;15.73;;
5171;SDS011;2605;49.770;9.868;2022-11-20T10:26:04;18.13;;;13.30;;
5171;SDS011;2605;49.770;9.868;2022-11-20T10:28:48;20.23;;;14.70;;
5171;SDS011;2605;49.770;9.868;2022-11-20T10:33:58;23.53;;;16.20;;
5171;SDS011;2605;49.770;9.868;2022-11-20T10:36:30;20.10;;;14.87;;
5171;SDS011;2605;49.770;9.868;2022-11-20T10:39:04;21.20;;;15.00;;
5171;SDS011;2605;49.770;9.868;2022-11-20T10:41:56;17.07;;;12.27;;
5171;SDS011;2605;49.770;9.868;2022-11-20T10:44:27;13.97;;;10.60;;
5171;SDS011;2605;49.770;9.868;2022-11-20T10:47:13;13.70;;;10.13;;
5171;SDS011;2605;49.770;9.868;2022-11-20T10:49:48;13.93;;;10.57;;
5171;SDS011;2605;49.770;9.868;2022-11-20T11:00:27;17.03;;;10.63;;
5171;SDS011;2605;49.770;9.868;2022-11-20T11:02:55;12.40;;;8.60;;
5171;SDS011;2605;49.770;9.868;2022-11-20T11:05:38;8.70;;;7.13;;
5171;SDS011;2605;49.770;9.868;2022-11-20T11:08:17;14.97;;;10.30;;
5171;SDS011;2605;49.770;9.868;2022-11-20T11:13:19;10.43;;;8.87;;
5171;SDS011;2605;49.770;9.868;2022-11-20T11:15:53;10.70;;;6.80;;
5171;SDS011;2605;49.770;9.868;2022-11-20T11:18:23;10.40;;;8.00;;
5171;SDS011;2605;49.770;9.868;2022-11-20T11:20:57;8.97;;;6.93;;
5171;SDS011;2605;49.770;9.868;2022-11-20T11:26:02;12.70;;;9.90;;
5171;SDS011;2605;49.770;9.868;2022-11-20T11:28:29;9.33;;;6.60;;
5171;SDS011;2605;49.770;9.868;2022-11-20T11:30:56;13.33;;;9.47;;
5171;SDS011;2605;49.770;9.868;2022-11-20T11:33:25;13.07;;;9.33;;
5171;SDS011;2605;49.770;9.868;2022-11-20T11:35:56;13.20;;;9.63;;
5171;SDS011;2605;49.770;9.868;2022-11-20T11:41:00;10.90;;;7.60;;
5171;SDS011;2605;49.770;9.868;2022-11-20T11:43:27;14.93;;;9.50;;
5171;SDS011;2605;49.770;9.868;2022-11-20T11:46:22;9.80;;;7.77;;
5171;SDS011;2605;49.770;9.868;2022-11-20T11:49:01;11.67;;;7.63;;
5171;SDS011;2605;49.770;9.868;2022-11-20T11:51:35;8.20;;;6.03;;
5171;SDS011;2605;49.770;9.868;2022-11-20T11:54:58;8.70;;;7.50;;
5171;SDS011;2605;49.770;9.868;2022-11-20T11:57:05;6.63;;;5.93;;
5171;SDS011;2605;49.770;9.868;2022-11-20T12:00:00;11.30;;;9.37;;
5171;SDS011;2605;49.770;9.868;2022-11-20T12:02:34;7.90;;;7.20;;
5171;SDS011;2605;49.770;9.868;2022-11-20T12:05:25;6.63;;;5.60;;
5171;SDS011;2605;49.770;9.868;2022-11-20T12:07:53;13.10;;;10.07;;
5171;SDS011;2605;49.770;9.868;2022-11-20T12:15:59;10.90;;;9.20;;
5171;SDS011;2605;49.770;9.868;2022-11-20T12:18:26;11.43;;;8.40;;
5171;SDS011;2605;49.770;9.868;2022-11-20T12:21:09;11.87;;;8.90;;
5171;SDS011;2605;49.770;9.868;2022-11-20T12:26:27;10.17;;;9.03;;
5171;SDS011;2605;49.770;9.868;2022-11-20T12:29:12;13.03;;;9.23;;
5171;SDS011;2605;49.770;9.868;2022-11-20T12:34:24;14.60;;;11.90;;
5171;SDS011;2605;49.770;9.868;2022-11-20T12:37:10;13.90;;;12.07;;
5171;SDS011;2605;49.770;9.868;2022-11-20T12:39:55;12.37;;;9.13;;
5171;SDS011;2605;49.770;9.868;2022-11-20T12:50:28;9.80;;;8.80;;
5171;SDS011;2605;49.770;9.868;2022-11-20T12:55:53;11.40;;;10.20;;
5171;SDS011;2605;49.770;9.868;2022-11-20T13:01:08;11.10;;;8.03;;
5171;SDS011;2605;49.770;9.868;2022-11-20T13:04:25;16.77;;;10.13;;
5171;SDS011;2605;49.770;9.868;2022-11-20T13:07:02;12.27;;;8.83;;
5171;SDS011;2605;49.770;9.868;2022-11-20T13:09:29;6.87;;;6.17;;
5171;SDS011;2605;49.770;9.868;2022-11-20T13:12:11;16.23;;;10.17;;
5171;SDS011;2605;49.770;9.868;2022-11-20T13:15:04;12.83;;;9.37;;
5171;SDS011;2605;49.770;9.868;2022-11-20T13:17:38;13.47;;;9.80;;
5171;SDS011;2605;49.770;9.868;2022-11-20T13:20:15;12.47;;;9.80;;
5171;SDS011;2605;49.770;9.868;2022-11-20T13:22:49;10.73;;;7.50;;
5171;SDS011;2605;49.770;9.868;2022-11-20T13:25:28;15.33;;;8.10;;
5171;SDS011;2605;49.770;9.868;2022-11-20T13:27:57;13.43;;;10.00;;
5171;SDS011;2605;49.770;9.868;2022-11-20T13:30:30;11.33;;;9.07;;
5171;SDS011;2605;49.770;9.868;2022-11-20T13:32:58;14.80;;;9.23;;
5171;SDS011;2605;49.770;9.868;2022-11-20T13:35:54;13.37;;;10.47;;
5171;SDS011;2605;49.770;9.868;2022-11-20T13:38:28;13.20;;;10.73;;
5171;SDS011;2605;49.770;9.868;2022-11-20T13:41:07;12.90;;;11.50;;
5171;SDS011;2605;49.770;9.868;2022-11-20T13:43:52;12.73;;;9.10;;
5171;SDS011;2605;49.770;9.868;2022-11-20T13:46:17;9.20;;;7.53;;
5171;SDS011;2605;49.770;9.868;2022-11-20T13:48:49;13.30;;;9.00;;
5171;SDS011;2605;49.770;9.868;2022-11-20T13:56:59;9.43;;;8.43;;
5171;SDS011;2605;49.770;9.868;2022-11-20T13:59:36;7.03;;;5.50;;
5171;SDS011;2605;49.770;9.868;2022-11-20T14:02:14;10.87;;;9.00;;
5171;SDS011;2605;49.770;9.868;2022-11-20T14:04:43;10.93;;;9.10;;
5171;SDS011;2605;49.770;9.868;2022-11-20T14:07:12;11.30;;;9.57;;
5171;SDS011;2605;49.770;9.868;2022-11-20T14:09:38;11.53;;;10.33;;
5171;SDS011;2605;49.770;9.868;2022-11-20T14:12:03;12.70;;;11.13;;
5171;SDS011;2605;49.770;9.868;2022-11-20T14:14:46;9.93;;;8.93;;
5171;SDS011;2605;49.770;9.868;2022-11-20T14:19:59;11.80;;;10.17;;
5171;SDS011;2605;49.770;9.868;2022-11-20T14:22:28;13.70;;;10.80;;
5171;SDS011;2605;49.770;9.868;2022-11-20T14:27:53;10.93;;;7.70;;
5171;SDS011;2605;49.770;9.868;2022-11-20T14:30:24;18.00;;;11.80;;
5171;SDS011;2605;49.770;9.868;2022-11-20T14:33:01;13.30;;;12.00;;
5171;SDS011;2605;49.770;9.868;2022-11-20T14:35:29;15.37;;;13.47;;
5171;SDS011;2605;49.770;9.868;2022-11-20T14:37:56;15.63;;;13.77;;
5171;SDS011;2605;49.770;9.868;2022-11-20T14:40:26;16.43;;;14.27;;
5171;SDS011;2605;49.770;9.868;2022-11-20T14:42:57;16.77;;;15.03;;
5171;SDS011;2605;49.770;9.868;2022-11-20T14:45:24;13.23;;;11.83;;
5171;SDS011;2605;49.770;9.868;2022-11-20T14:47:51;16.60;;;14.27;;
5171;SDS011;2605;49.770;9.868;2022-11-20T14:50:23;16.67;;;14.50;;
5171;SDS011;2605;49.770;9.868;2022-11-20T14:53:00;20.20;;;15.80;;
5171;SDS011;2605;49.770;9.868;2022-11-20T14:55:27;16.80;;;14.90;;
5171;SDS011;2605;49.770;9.868;2022-11-20T14:57:55;17.43;;;15.60;;
5171;SDS011;2605;49.770;9.868;2022-11-20T15:00:22;17.07;;;15.23;;
5171;SDS011;2605;49.770;9.868;2022-11-20T15:02:48;16.67;;;14.03;;
5171;SDS011;2605;49.770;9.868;2022-11-20T15:05:16;19.07;;;15.30;;
5171;SDS011;2605;49.770;9.868;2022-11-20T15:07:44;15.43;;;12.90;;
5171;SDS011;2605;49.770;9.868;2022-11-20T15:10:12;20.00;;;13.87;;
5171;SDS011;2605;49.770;9.868;2022-11-20T15:12:55;16.13;;;13.87;;
5171;SDS011;2605;49.770;9.868;2022-11-20T15:18:13;16.10;;;13.67;;
5171;SDS011;2605;49.770;9.868;2022-11-20T15:20:41;15.80;;;14.17;;
5171;SDS011;2605;49.770;9.868;2022-11-20T15:23:12;15.53;;;13.90;;
5171;SDS011;2605;49.770;9.868;2022-11-20T15:25:39;17.23;;;13.80;;
5171;SDS011;2605;49.770;9.868;2022-11-20T15:28:10;15.00;;;13.50;;
5171;SDS011;2605;49.770;9.868;2022-11-20T15:30:44;17.53;;;14.50;;
5171;SDS011;2605;49.770;9.868;2022-11-20T15:33:11;14.93;;;13.37;;
5171;SDS011;2605;49.770;9.868;2022-11-20T15:35:37;17.20;;;13.50;;
5171;SDS011;2605;49.770;9.868;2022-11-20T15:38:03;16.73;;;13.27;;
5171;SDS011;2605;49.770;9.868;2022-11-20T15:40:28;15.93;;;13.97;;
5171;SDS011;2605;49.770;9.868;2022-11-20T15:42:54;17.97;;;14.83;;
5171;SDS011;2605;49.770;9.868;2022-11-20T15:45:33;15.60;;;13.97;;
5171;SDS011;2605;49.770;9.868;2022-11-20T15:48:41;23.17;;;14.03;;
5171;SDS011;2605;49.770;9.868;2022-11-20T15:51:17;17.70;;;14.90;;
5171;SDS011;2605;49.770;9.868;2022-11-20T15:53:50;35.80;;;15.60;;
5171;SDS011;2605;49.770;9.868;2022-11-20T15:56:15;104.77;;;21.63;;
5171;SDS011;2605;49.770;9.868;2022-11-20T15:58:41;36.77;;;16.97;;
5171;SDS011;2605;49.770;9.868;2022-11-20T16:01:13;84.63;;;20.70;;
5171;SDS011;2605;49.770;9.868;2022-11-20T16:03:40;38.47;;;16.97;;
5171;SDS011;2605;49.770;9.868;2022-11-20T16:06:07;98.27;;;19.73;;
5171;SDS011;2605;49.770;9.868;2022-11-20T16:08:33;20.37;;;16.10;;
5171;SDS011;2605;49.770;9.868;2022-11-20T16:10:58;54.87;;;18.80;;
5171;SDS011;2605;49.770;9.868;2022-11-20T16:13:24;42.93;;;16.27;;
5171;SDS011;2605;49.770;9.868;2022-11-20T16:16:11;31.93;;;16.37;;
5171;SDS011;2605;49.770;9.868;2022-11-20T16:18:47;19.37;;;13.10;;